sensor_id;sensor_type;location;lat;lon;timestamp;temperature;humidity
7290;DHT22;63176;52.678;13.250;2024-02-21T00:01:56;8.50;99.90
7290;DHT22;63176;52.678;13.250;2024-02-21T00:04:21;8.50;99.90
7290;DHT22;63176;52.678;13.250;2024-02-21T00:06:47;8.40;99.90
7290;DHT22;63176;52.678;13.250;2024-02-21T00:09:12;8.40;99.90
7290;DHT22;63176;52.678;13.250;2024-02-21T00:11:38;8.40;99.90
7290;DHT22;63176;52.678;13.250;2024-02-21T00:14:04;8.40;99.90
7290;DHT22;63176;52.678;13.250;2024-02-21T00:16:29;8.40;99.90
7290;DHT22;63176;52.678;13.250;2024-02-21T00:18:55;8.40;99.90
7290;DHT22;63176;52.678;13.250;2024-02-21T00:21:20;8.20;99.90
7290;DHT22;63176;52.678;13.250;2024-02-21T00:23:46;8.30;99.90
7290;DHT22;63176;52.678;13.250;2024-02-21T00:26:12;8.40;99.90
7290;DHT22;63176;52.678;13.250;2024-02-21T00:28:41;8.40;99.90
7290;DHT22;63176;52.678;13.250;2024-02-21T00:31:07;8.40;99.90
7290;DHT22;63176;52.678;13.250;2024-02-21T00:33:32;8.40;99.90
7290;DHT22;63176;52.678;13.250;2024-02-21T00:35:58;8.30;99.90
7290;DHT22;63176;52.678;13.250;2024-02-21T00:38:24;8.40;99.90
7290;DHT22;63176;52.678;13.250;2024-02-21T00:40:49;8.40;99.90
7290;DHT22;63176;52.678;13.250;2024-02-21T00:43:15;8.60;99.90
7290;DHT22;63176;52.678;13.250;2024-02-21T00:45:41;8.40;99.90
7290;DHT22;63176;52.678;13.250;2024-02-21T00:48:06;8.50;99.90
7290;DHT22;63176;52.678;13.250;2024-02-21T00:50:32;8.40;99.90
7290;DHT22;63176;52.678;13.250;2024-02-21T00:52:58;8.40;99.90
7290;DHT22;63176;52.678;13.250;2024-02-21T00:55:23;8.40;99.90
7290;DHT22;63176;52.678;13.250;2024-02-21T00:57:49;8.40;99.90
7290;DHT22;63176;52.678;13.250;2024-02-21T01:00:15;8.40;99.90
7290;DHT22;63176;52.678;13.250;2024-02-21T01:02:41;8.40;99.90
7290;DHT22;63176;52.678;13.250;2024-02-21T01:05:07;8.40;99.90
7290;DHT22;63176;52.678;13.250;2024-02-21T01:07:32;8.40;99.90
7290;DHT22;63176;52.678;13.250;2024-02-21T01:09:58;8.40;99.90
7290;DHT22;63176;52.678;13.250;2024-02-21T01:12:24;8.40;99.90
7290;DHT22;63176;52.678;13.250;2024-02-21T01:14:50;8.40;99.90
7290;DHT22;63176;52.678;13.250;2024-02-21T01:17:15;8.40;99.90
7290;DHT22;63176;52.678;13.250;2024-02-21T01:19:41;8.40;99.90
7290;DHT22;63176;52.678;13.250;2024-02-21T01:22:07;8.40;99.90
7290;DHT22;63176;52.678;13.250;2024-02-21T01:24:33;8.40;99.90
7290;DHT22;63176;52.678;13.250;2024-02-21T01:26:58;8.50;99.90
7290;DHT22;63176;52.678;13.250;2024-02-21T01:29:24;8.50;99.90
7290;DHT22;63176;52.678;13.250;2024-02-21T01:31:50;8.50;99.90
7290;DHT22;63176;52.678;13.250;2024-02-21T01:34:15;8.50;99.90
7290;DHT22;63176;52.678;13.250;2024-02-21T01:36:41;8.50;99.90
7290;DHT22;63176;52.678;13.250;2024-02-21T01:39:07;8.50;99.90
7290;DHT22;63176;52.678;13.250;2024-02-21T01:41:33;8.50;99.90
7290;DHT22;63176;52.678;13.250;2024-02-21T01:43:59;8.50;99.90
7290;DHT22;63176;52.678;13.250;2024-02-21T01:46:25;8.50;99.90
7290;DHT22;63176;52.678;13.250;2024-02-21T01:48:57;8.60;99.90
7290;DHT22;63176;52.678;13.250;2024-02-21T01:51:23;8.50;99.90
7290;DHT22;63176;52.678;13.250;2024-02-21T01:53:51;8.60;99.90
7290;DHT22;63176;52.678;13.250;2024-02-21T01:56:17;8.60;99.90
7290;DHT22;63176;52.678;13.250;2024-02-21T01:58:43;8.60;99.90
7290;DHT22;63176;52.678;13.250;2024-02-21T02:01:10;8.60;99.90
7290;DHT22;63176;52.678;13.250;2024-02-21T02:03:36;8.60;99.90
7290;DHT22;63176;52.678;13.250;2024-02-21T02:06:05;8.60;99.90
7290;DHT22;63176;52.678;13.250;2024-02-21T02:08:31;8.60;99.90
7290;DHT22;63176;52.678;13.250;2024-02-21T02:10:57;8.60;99.90
7290;DHT22;63176;52.678;13.250;2024-02-21T02:13:23;8.60;99.90
7290;DHT22;63176;52.678;13.250;2024-02-21T02:15:49;8.60;99.90
7290;DHT22;63176;52.678;13.250;2024-02-21T02:18:16;8.60;99.90
7290;DHT22;63176;52.678;13.250;2024-02-21T02:20:43;8.60;99.90
7290;DHT22;63176;52.678;13.250;2024-02-21T02:25:49;8.60;99.90
7290;DHT22;63176;52.678;13.250;2024-02-21T02:28:17;8.50;99.90
7290;DHT22;63176;52.678;13.250;2024-02-21T02:30:43;8.50;99.90
7290;DHT22;63176;52.678;13.250;2024-02-21T02:33:09;8.50;99.90
7290;DHT22;63176;52.678;13.250;2024-02-21T02:35:35;8.40;99.90
7290;DHT22;63176;52.678;13.250;2024-02-21T02:38:04;8.40;99.90
7290;DHT22;63176;52.678;13.250;2024-02-21T02:40:34;8.30;99.90
7290;DHT22;63176;52.678;13.250;2024-02-21T02:43:00;8.30;99.90
7290;DHT22;63176;52.678;13.250;2024-02-21T02:45:26;8.20;99.90
7290;DHT22;63176;52.678;13.250;2024-02-21T02:47:52;8.20;99.90
7290;DHT22;63176;52.678;13.250;2024-02-21T02:50:19;8.10;99.90
7290;DHT22;63176;52.678;13.250;2024-02-21T02:52:45;8.10;99.90
7290;DHT22;63176;52.678;13.250;2024-02-21T02:55:11;8.10;99.90
7290;DHT22;63176;52.678;13.250;2024-02-21T02:57:36;8.10;99.90
7290;DHT22;63176;52.678;13.250;2024-02-21T03:00:03;8.10;99.90
7290;DHT22;63176;52.678;13.250;2024-02-21T03:02:29;8.10;99.90
7290;DHT22;63176;52.678;13.250;2024-02-21T03:04:56;8.10;99.90
7290;DHT22;63176;52.678;13.250;2024-02-21T03:07:22;8.00;99.90
7290;DHT22;63176;52.678;13.250;2024-02-21T03:09:47;8.10;99.90
7290;DHT22;63176;52.678;13.250;2024-02-21T03:12:13;8.10;99.90
7290;DHT22;63176;52.678;13.250;2024-02-21T03:14:44;8.10;99.90
7290;DHT22;63176;52.678;13.250;2024-02-21T03:17:11;8.20;99.90
7290;DHT22;63176;52.678;13.250;2024-02-21T03:19:36;8.00;99.90
7290;DHT22;63176;52.678;13.250;2024-02-21T03:22:02;7.90;99.90
7290;DHT22;63176;52.678;13.250;2024-02-21T03:24:28;8.00;99.90
7290;DHT22;63176;52.678;13.250;2024-02-21T03:26:55;8.00;99.90
7290;DHT22;63176;52.678;13.250;2024-02-21T03:29:21;7.90;99.90
7290;DHT22;63176;52.678;13.250;2024-02-21T03:31:47;8.00;99.90
7290;DHT22;63176;52.678;13.250;2024-02-21T03:34:12;7.90;99.90
7290;DHT22;63176;52.678;13.250;2024-02-21T03:36:38;7.90;99.90
7290;DHT22;63176;52.678;13.250;2024-02-21T03:39:04;7.90;99.90
7290;DHT22;63176;52.678;13.250;2024-02-21T03:41:29;7.90;99.90
7290;DHT22;63176;52.678;13.250;2024-02-21T03:43:55;7.90;99.90
7290;DHT22;63176;52.678;13.250;2024-02-21T03:46:21;8.00;99.90
7290;DHT22;63176;52.678;13.250;2024-02-21T03:48:46;7.80;99.90
7290;DHT22;63176;52.678;13.250;2024-02-21T03:51:12;7.80;99.90
7290;DHT22;63176;52.678;13.250;2024-02-21T03:53:38;7.90;99.90
7290;DHT22;63176;52.678;13.250;2024-02-21T03:56:03;7.80;99.90
7290;DHT22;63176;52.678;13.250;2024-02-21T03:58:33;7.90;99.90
7290;DHT22;63176;52.678;13.250;2024-02-21T04:01:02;7.80;99.90
7290;DHT22;63176;52.678;13.250;2024-02-21T04:03:28;7.90;99.90
7290;DHT22;63176;52.678;13.250;2024-02-21T04:05:54;7.90;99.90
7290;DHT22;63176;52.678;13.250;2024-02-21T04:08:20;7.90;99.90
7290;DHT22;63176;52.678;13.250;2024-02-21T04:10:46;7.90;99.90
7290;DHT22;63176;52.678;13.250;2024-02-21T04:13:12;7.90;99.90
7290;DHT22;63176;52.678;13.250;2024-02-21T04:15:37;7.90;99.90
7290;DHT22;63176;52.678;13.250;2024-02-21T04:18:03;7.90;99.90
7290;DHT22;63176;52.678;13.250;2024-02-21T04:20:29;7.90;99.90
7290;DHT22;63176;52.678;13.250;2024-02-21T04:22:55;8.00;99.90
7290;DHT22;63176;52.678;13.250;2024-02-21T04:25:21;8.00;99.90
7290;DHT22;63176;52.678;13.250;2024-02-21T04:27:47;8.00;99.90
7290;DHT22;63176;52.678;13.250;2024-02-21T04:30:13;8.00;99.90
7290;DHT22;63176;52.678;13.250;2024-02-21T04:32:39;7.90;99.90
7290;DHT22;63176;52.678;13.250;2024-02-21T04:35:06;7.90;99.90
7290;DHT22;63176;52.678;13.250;2024-02-21T04:37:32;7.90;99.90
7290;DHT22;63176;52.678;13.250;2024-02-21T04:39:58;7.80;99.90
7290;DHT22;63176;52.678;13.250;2024-02-21T04:42:23;7.90;99.90
7290;DHT22;63176;52.678;13.250;2024-02-21T04:44:49;7.90;99.90
7290;DHT22;63176;52.678;13.250;2024-02-21T04:47:14;8.00;99.90
7290;DHT22;63176;52.678;13.250;2024-02-21T04:49:40;7.90;99.90
7290;DHT22;63176;52.678;13.250;2024-02-21T04:52:06;8.00;99.90
7290;DHT22;63176;52.678;13.250;2024-02-21T04:54:31;8.10;99.90
7290;DHT22;63176;52.678;13.250;2024-02-21T04:56:57;8.00;99.90
7290;DHT22;63176;52.678;13.250;2024-02-21T04:59:22;8.00;99.90
7290;DHT22;63176;52.678;13.250;2024-02-21T05:01:48;8.00;99.90
7290;DHT22;63176;52.678;13.250;2024-02-21T05:04:14;8.00;99.90
7290;DHT22;63176;52.678;13.250;2024-02-21T05:06:40;8.00;99.90
7290;DHT22;63176;52.678;13.250;2024-02-21T05:09:07;8.00;99.90
7290;DHT22;63176;52.678;13.250;2024-02-21T05:11:34;8.00;99.90
7290;DHT22;63176;52.678;13.250;2024-02-21T05:14:00;8.00;99.90
7290;DHT22;63176;52.678;13.250;2024-02-21T05:16:25;7.80;99.90
7290;DHT22;63176;52.678;13.250;2024-02-21T05:18:51;8.10;99.90
7290;DHT22;63176;52.678;13.250;2024-02-21T05:21:17;8.00;99.90
7290;DHT22;63176;52.678;13.250;2024-02-21T05:23:43;7.90;99.90
7290;DHT22;63176;52.678;13.250;2024-02-21T05:26:09;8.00;99.90
7290;DHT22;63176;52.678;13.250;2024-02-21T05:28:34;7.90;99.90
7290;DHT22;63176;52.678;13.250;2024-02-21T05:31:00;7.90;99.90
7290;DHT22;63176;52.678;13.250;2024-02-21T05:33:26;7.90;99.90
7290;DHT22;63176;52.678;13.250;2024-02-21T05:35:52;7.90;99.90
7290;DHT22;63176;52.678;13.250;2024-02-21T05:38:18;7.90;99.90
7290;DHT22;63176;52.678;13.250;2024-02-21T05:40:47;7.90;99.90
7290;DHT22;63176;52.678;13.250;2024-02-21T05:43:20;7.90;99.90
7290;DHT22;63176;52.678;13.250;2024-02-21T05:45:50;7.90;99.90
7290;DHT22;63176;52.678;13.250;2024-02-21T05:48:17;8.00;99.90
7290;DHT22;63176;52.678;13.250;2024-02-21T05:50:42;8.00;99.90
7290;DHT22;63176;52.678;13.250;2024-02-21T05:53:08;7.90;99.90
7290;DHT22;63176;52.678;13.250;2024-02-21T05:55:33;8.00;99.90
7290;DHT22;63176;52.678;13.250;2024-02-21T05:58:00;8.00;99.90
7290;DHT22;63176;52.678;13.250;2024-02-21T06:00:25;8.00;99.90
7290;DHT22;63176;52.678;13.250;2024-02-21T06:02:51;8.00;99.90
7290;DHT22;63176;52.678;13.250;2024-02-21T06:05:17;8.00;99.90
7290;DHT22;63176;52.678;13.250;2024-02-21T06:07:42;8.00;99.90
7290;DHT22;63176;52.678;13.250;2024-02-21T06:10:08;8.00;99.90
7290;DHT22;63176;52.678;13.250;2024-02-21T06:12:34;8.00;99.90
7290;DHT22;63176;52.678;13.250;2024-02-21T06:15:00;8.00;99.90
7290;DHT22;63176;52.678;13.250;2024-02-21T06:17:25;8.00;99.90
7290;DHT22;63176;52.678;13.250;2024-02-21T06:19:51;8.10;99.90
7290;DHT22;63176;52.678;13.250;2024-02-21T06:22:16;8.00;99.90
7290;DHT22;63176;52.678;13.250;2024-02-21T06:24:43;8.00;99.90
7290;DHT22;63176;52.678;13.250;2024-02-21T06:27:09;8.10;99.90
7290;DHT22;63176;52.678;13.250;2024-02-21T06:29:36;8.10;99.90
7290;DHT22;63176;52.678;13.250;2024-02-21T06:32:01;8.10;99.90
7290;DHT22;63176;52.678;13.250;2024-02-21T06:34:27;8.10;99.90
7290;DHT22;63176;52.678;13.250;2024-02-21T06:36:53;8.10;99.90
7290;DHT22;63176;52.678;13.250;2024-02-21T06:39:18;8.10;99.90
7290;DHT22;63176;52.678;13.250;2024-02-21T06:41:44;8.10;99.90
7290;DHT22;63176;52.678;13.250;2024-02-21T06:44:10;8.20;99.90
7290;DHT22;63176;52.678;13.250;2024-02-21T06:46:36;8.10;99.90
7290;DHT22;63176;52.678;13.250;2024-02-21T06:49:02;8.20;99.90
7290;DHT22;63176;52.678;13.250;2024-02-21T06:51:29;8.00;99.90
7290;DHT22;63176;52.678;13.250;2024-02-21T06:53:55;8.20;99.90
7290;DHT22;63176;52.678;13.250;2024-02-21T06:56:24;8.10;99.90
7290;DHT22;63176;52.678;13.250;2024-02-21T06:58:54;8.10;99.90
7290;DHT22;63176;52.678;13.250;2024-02-21T07:01:20;8.30;99.90
7290;DHT22;63176;52.678;13.250;2024-02-21T07:03:46;8.20;99.90
7290;DHT22;63176;52.678;13.250;2024-02-21T07:06:11;8.20;99.90
7290;DHT22;63176;52.678;13.250;2024-02-21T07:08:38;8.20;99.90
7290;DHT22;63176;52.678;13.250;2024-02-21T07:11:04;8.30;99.90
7290;DHT22;63176;52.678;13.250;2024-02-21T07:13:30;8.30;99.90
7290;DHT22;63176;52.678;13.250;2024-02-21T07:15:56;8.40;99.90
7290;DHT22;63176;52.678;13.250;2024-02-21T07:18:21;8.20;99.90
7290;DHT22;63176;52.678;13.250;2024-02-21T07:20:47;8.30;99.90
7290;DHT22;63176;52.678;13.250;2024-02-21T07:23:13;8.30;99.90
7290;DHT22;63176;52.678;13.250;2024-02-21T07:25:38;8.40;99.90
7290;DHT22;63176;52.678;13.250;2024-02-21T07:28:05;8.40;99.90
7290;DHT22;63176;52.678;13.250;2024-02-21T07:30:31;8.40;99.90
7290;DHT22;63176;52.678;13.250;2024-02-21T07:32:56;8.40;99.90
7290;DHT22;63176;52.678;13.250;2024-02-21T07:35:22;8.40;99.90
7290;DHT22;63176;52.678;13.250;2024-02-21T07:37:47;8.50;99.90
7290;DHT22;63176;52.678;13.250;2024-02-21T07:40:14;8.40;99.90
7290;DHT22;63176;52.678;13.250;2024-02-21T07:42:43;8.50;99.90
7290;DHT22;63176;52.678;13.250;2024-02-21T07:45:09;8.50;99.90
7290;DHT22;63176;52.678;13.250;2024-02-21T07:47:36;8.50;99.90
7290;DHT22;63176;52.678;13.250;2024-02-21T07:50:05;8.50;99.90
7290;DHT22;63176;52.678;13.250;2024-02-21T07:52:31;8.60;99.90
7290;DHT22;63176;52.678;13.250;2024-02-21T07:54:57;8.50;99.90
7290;DHT22;63176;52.678;13.250;2024-02-21T07:57:23;8.60;99.90
7290;DHT22;63176;52.678;13.250;2024-02-21T07:59:48;8.60;99.90
7290;DHT22;63176;52.678;13.250;2024-02-21T08:02:17;8.60;99.90
7290;DHT22;63176;52.678;13.250;2024-02-21T08:04:43;8.70;99.90
7290;DHT22;63176;52.678;13.250;2024-02-21T08:07:09;8.60;99.90
7290;DHT22;63176;52.678;13.250;2024-02-21T08:09:35;8.70;99.90
7290;DHT22;63176;52.678;13.250;2024-02-21T08:12:03;8.70;99.90
7290;DHT22;63176;52.678;13.250;2024-02-21T08:14:29;8.70;99.90
7290;DHT22;63176;52.678;13.250;2024-02-21T08:16:55;8.70;99.90
7290;DHT22;63176;52.678;13.250;2024-02-21T08:19:21;8.70;99.90
7290;DHT22;63176;52.678;13.250;2024-02-21T08:21:48;8.70;99.90
7290;DHT22;63176;52.678;13.250;2024-02-21T08:24:16;8.70;99.90
7290;DHT22;63176;52.678;13.250;2024-02-21T08:26:43;8.70;99.90
7290;DHT22;63176;52.678;13.250;2024-02-21T08:29:11;8.70;99.90
7290;DHT22;63176;52.678;13.250;2024-02-21T08:31:37;8.70;99.90
7290;DHT22;63176;52.678;13.250;2024-02-21T08:34:02;8.80;99.90
7290;DHT22;63176;52.678;13.250;2024-02-21T08:36:33;8.80;99.90
7290;DHT22;63176;52.678;13.250;2024-02-21T08:38:59;8.80;99.90
7290;DHT22;63176;52.678;13.250;2024-02-21T08:41:24;8.90;99.90
7290;DHT22;63176;52.678;13.250;2024-02-21T08:43:51;8.90;99.90
7290;DHT22;63176;52.678;13.250;2024-02-21T08:46:17;8.90;99.90
7290;DHT22;63176;52.678;13.250;2024-02-21T08:48:43;9.00;99.90
7290;DHT22;63176;52.678;13.250;2024-02-21T08:51:12;9.00;99.90
7290;DHT22;63176;52.678;13.250;2024-02-21T08:53:37;9.00;99.90
7290;DHT22;63176;52.678;13.250;2024-02-21T08:56:04;9.00;99.90
7290;DHT22;63176;52.678;13.250;2024-02-21T08:58:29;9.00;99.90
7290;DHT22;63176;52.678;13.250;2024-02-21T09:00:55;9.10;99.90
7290;DHT22;63176;52.678;13.250;2024-02-21T09:03:22;9.10;99.90
7290;DHT22;63176;52.678;13.250;2024-02-21T09:05:47;9.10;99.90
7290;DHT22;63176;52.678;13.250;2024-02-21T09:08:13;9.10;99.90
7290;DHT22;63176;52.678;13.250;2024-02-21T09:10:42;9.20;99.90
7290;DHT22;63176;52.678;13.250;2024-02-21T09:13:07;9.20;99.90
7290;DHT22;63176;52.678;13.250;2024-02-21T09:15:34;9.20;99.90
7290;DHT22;63176;52.678;13.250;2024-02-21T09:17:59;9.30;99.90
7290;DHT22;63176;52.678;13.250;2024-02-21T09:20:25;9.40;99.90
7290;DHT22;63176;52.678;13.250;2024-02-21T09:22:50;9.50;99.90
7290;DHT22;63176;52.678;13.250;2024-02-21T09:25:17;9.70;99.90
7290;DHT22;63176;52.678;13.250;2024-02-21T09:27:44;9.80;99.90
7290;DHT22;63176;52.678;13.250;2024-02-21T09:30:10;9.90;99.90
7290;DHT22;63176;52.678;13.250;2024-02-21T09:32:37;9.90;99.90
7290;DHT22;63176;52.678;13.250;2024-02-21T09:35:03;9.90;99.90
7290;DHT22;63176;52.678;13.250;2024-02-21T09:37:30;9.80;99.90
7290;DHT22;63176;52.678;13.250;2024-02-21T09:39:56;9.80;99.90
7290;DHT22;63176;52.678;13.250;2024-02-21T09:42:25;9.70;99.90
7290;DHT22;63176;52.678;13.250;2024-02-21T09:44:55;9.70;99.90
7290;DHT22;63176;52.678;13.250;2024-02-21T09:47:38;9.70;99.90
7290;DHT22;63176;52.678;13.250;2024-02-21T09:50:05;9.60;99.90
7290;DHT22;63176;52.678;13.250;2024-02-21T09:52:32;9.70;99.90
7290;DHT22;63176;52.678;13.250;2024-02-21T09:55:01;9.60;99.90
7290;DHT22;63176;52.678;13.250;2024-02-21T09:57:27;9.60;99.90
7290;DHT22;63176;52.678;13.250;2024-02-21T09:59:55;9.60;99.90
7290;DHT22;63176;52.678;13.250;2024-02-21T10:02:22;9.60;99.90
7290;DHT22;63176;52.678;13.250;2024-02-21T10:04:47;9.60;99.90
7290;DHT22;63176;52.678;13.250;2024-02-21T10:07:13;9.60;99.90
7290;DHT22;63176;52.678;13.250;2024-02-21T10:09:39;9.70;99.90
7290;DHT22;63176;52.678;13.250;2024-02-21T10:12:10;9.70;99.90
7290;DHT22;63176;52.678;13.250;2024-02-21T10:14:36;9.70;99.90
7290;DHT22;63176;52.678;13.250;2024-02-21T10:17:01;9.80;99.90
7290;DHT22;63176;52.678;13.250;2024-02-21T10:19:28;9.80;99.90
7290;DHT22;63176;52.678;13.250;2024-02-21T10:22:05;9.90;99.90
7290;DHT22;63176;52.678;13.250;2024-02-21T10:24:36;9.90;99.90
7290;DHT22;63176;52.678;13.250;2024-02-21T10:27:09;9.90;99.90
7290;DHT22;63176;52.678;13.250;2024-02-21T10:29:36;10.00;99.90
7290;DHT22;63176;52.678;13.250;2024-02-21T10:32:09;9.90;99.90
7290;DHT22;63176;52.678;13.250;2024-02-21T10:34:36;9.90;99.90
7290;DHT22;63176;52.678;13.250;2024-02-21T10:37:10;9.90;99.90
7290;DHT22;63176;52.678;13.250;2024-02-21T10:39:41;9.90;99.90
7290;DHT22;63176;52.678;13.250;2024-02-21T10:42:07;9.80;99.90
7290;DHT22;63176;52.678;13.250;2024-02-21T10:44:39;9.80;99.90
7290;DHT22;63176;52.678;13.250;2024-02-21T10:47:10;9.80;99.90
7290;DHT22;63176;52.678;13.250;2024-02-21T10:49:40;9.80;99.90
7290;DHT22;63176;52.678;13.250;2024-02-21T10:54:43;9.80;99.90
7290;DHT22;63176;52.678;13.250;2024-02-21T10:57:12;9.80;99.90
7290;DHT22;63176;52.678;13.250;2024-02-21T10:59:40;9.90;99.90
7290;DHT22;63176;52.678;13.250;2024-02-21T11:02:06;9.90;99.90
7290;DHT22;63176;52.678;13.250;2024-02-21T11:04:33;9.90;99.90
7290;DHT22;63176;52.678;13.250;2024-02-21T11:07:05;9.90;99.90
7290;DHT22;63176;52.678;13.250;2024-02-21T11:09:31;9.90;99.90
7290;DHT22;63176;52.678;13.250;2024-02-21T11:12:04;9.90;99.90
7290;DHT22;63176;52.678;13.250;2024-02-21T11:14:31;10.00;99.90
7290;DHT22;63176;52.678;13.250;2024-02-21T11:17:17;10.00;99.90
7290;DHT22;63176;52.678;13.250;2024-02-21T11:19:43;10.10;99.90
7290;DHT22;63176;52.678;13.250;2024-02-21T11:22:19;10.20;99.90
7290;DHT22;63176;52.678;13.250;2024-02-21T11:24:45;10.20;99.90
7290;DHT22;63176;52.678;13.250;2024-02-21T11:27:21;10.20;99.90
7290;DHT22;63176;52.678;13.250;2024-02-21T11:29:55;10.40;99.90
7290;DHT22;63176;52.678;13.250;2024-02-21T11:32:21;10.40;99.90
7290;DHT22;63176;52.678;13.250;2024-02-21T11:35:01;10.50;99.90
7290;DHT22;63176;52.678;13.250;2024-02-21T11:37:28;10.60;99.90
7290;DHT22;63176;52.678;13.250;2024-02-21T11:39:57;10.60;99.90
7290;DHT22;63176;52.678;13.250;2024-02-21T11:42:25;10.70;99.90
7290;DHT22;63176;52.678;13.250;2024-02-21T11:44:52;10.80;99.90
7290;DHT22;63176;52.678;13.250;2024-02-21T11:47:18;10.90;99.90
7290;DHT22;63176;52.678;13.250;2024-02-21T11:49:48;10.90;99.90
7290;DHT22;63176;52.678;13.250;2024-02-21T11:52:16;11.10;99.90
7290;DHT22;63176;52.678;13.250;2024-02-21T11:54:44;11.20;99.90
7290;DHT22;63176;52.678;13.250;2024-02-21T11:57:10;11.20;99.90
7290;DHT22;63176;52.678;13.250;2024-02-21T11:59:40;11.20;99.90
7290;DHT22;63176;52.678;13.250;2024-02-21T12:02:06;11.20;99.90
7290;DHT22;63176;52.678;13.250;2024-02-21T12:04:33;11.20;99.90
7290;DHT22;63176;52.678;13.250;2024-02-21T12:06:59;11.30;99.90
7290;DHT22;63176;52.678;13.250;2024-02-21T12:09:25;11.30;99.90
7290;DHT22;63176;52.678;13.250;2024-02-21T12:12:01;11.40;99.90
7290;DHT22;63176;52.678;13.250;2024-02-21T12:14:29;11.30;99.90
7290;DHT22;63176;52.678;13.250;2024-02-21T12:16:55;11.20;99.90
7290;DHT22;63176;52.678;13.250;2024-02-21T12:19:21;11.20;99.90
7290;DHT22;63176;52.678;13.250;2024-02-21T12:21:48;11.20;99.90
7290;DHT22;63176;52.678;13.250;2024-02-21T12:24:22;11.20;99.90
7290;DHT22;63176;52.678;13.250;2024-02-21T12:26:48;11.10;99.90
7290;DHT22;63176;52.678;13.250;2024-02-21T12:29:14;11.20;99.90
7290;DHT22;63176;52.678;13.250;2024-02-21T12:31:40;11.20;99.90
7290;DHT22;63176;52.678;13.250;2024-02-21T12:34:06;11.20;99.90
7290;DHT22;63176;52.678;13.250;2024-02-21T12:36:32;11.20;99.90
7290;DHT22;63176;52.678;13.250;2024-02-21T12:38:59;11.20;99.90
7290;DHT22;63176;52.678;13.250;2024-02-21T12:41:25;11.20;99.90
7290;DHT22;63176;52.678;13.250;2024-02-21T12:43:53;11.20;99.90
7290;DHT22;63176;52.678;13.250;2024-02-21T12:46:18;11.30;99.90
7290;DHT22;63176;52.678;13.250;2024-02-21T12:48:44;11.30;99.90
7290;DHT22;63176;52.678;13.250;2024-02-21T12:51:10;11.30;99.90
7290;DHT22;63176;52.678;13.250;2024-02-21T12:53:35;11.30;99.90
7290;DHT22;63176;52.678;13.250;2024-02-21T12:56:01;11.50;99.90
7290;DHT22;63176;52.678;13.250;2024-02-21T12:58:27;11.60;99.90
7290;DHT22;63176;52.678;13.250;2024-02-21T13:00:54;11.70;99.90
7290;DHT22;63176;52.678;13.250;2024-02-21T13:03:19;11.80;99.90
7290;DHT22;63176;52.678;13.250;2024-02-21T13:05:46;11.80;99.90
7290;DHT22;63176;52.678;13.250;2024-02-21T13:08:13;11.90;99.90
7290;DHT22;63176;52.678;13.250;2024-02-21T13:10:39;11.80;99.90
7290;DHT22;63176;52.678;13.250;2024-02-21T13:13:04;11.80;99.90
7290;DHT22;63176;52.678;13.250;2024-02-21T13:15:30;11.80;99.90
7290;DHT22;63176;52.678;13.250;2024-02-21T13:17:56;11.80;99.90
7290;DHT22;63176;52.678;13.250;2024-02-21T13:20:28;11.80;99.90
7290;DHT22;63176;52.678;13.250;2024-02-21T13:22:55;11.80;99.90
7290;DHT22;63176;52.678;13.250;2024-02-21T13:25:21;11.80;99.90
7290;DHT22;63176;52.678;13.250;2024-02-21T13:27:47;11.70;99.90
7290;DHT22;63176;52.678;13.250;2024-02-21T13:30:14;11.70;99.90
7290;DHT22;63176;52.678;13.250;2024-02-21T13:32:41;11.70;99.90
7290;DHT22;63176;52.678;13.250;2024-02-21T13:35:08;11.60;99.90
7290;DHT22;63176;52.678;13.250;2024-02-21T13:37:34;11.60;99.90
7290;DHT22;63176;52.678;13.250;2024-02-21T13:40:00;11.60;99.90
7290;DHT22;63176;52.678;13.250;2024-02-21T13:42:26;11.60;99.90
7290;DHT22;63176;52.678;13.250;2024-02-21T13:44:53;11.50;99.90
7290;DHT22;63176;52.678;13.250;2024-02-21T13:47:19;11.50;99.90
7290;DHT22;63176;52.678;13.250;2024-02-21T13:49:44;11.50;99.90
7290;DHT22;63176;52.678;13.250;2024-02-21T13:52:14;11.40;99.90
7290;DHT22;63176;52.678;13.250;2024-02-21T13:54:40;11.40;99.90
7290;DHT22;63176;52.678;13.250;2024-02-21T13:57:05;11.40;99.90
7290;DHT22;63176;52.678;13.250;2024-02-21T13:59:31;11.40;99.90
7290;DHT22;63176;52.678;13.250;2024-02-21T14:01:59;11.30;99.90
7290;DHT22;63176;52.678;13.250;2024-02-21T14:04:25;11.30;99.90
7290;DHT22;63176;52.678;13.250;2024-02-21T14:06:50;11.30;99.90
7290;DHT22;63176;52.678;13.250;2024-02-21T14:09:16;11.30;99.90
7290;DHT22;63176;52.678;13.250;2024-02-21T14:11:42;11.20;99.90
7290;DHT22;63176;52.678;13.250;2024-02-21T14:14:07;11.30;99.90
7290;DHT22;63176;52.678;13.250;2024-02-21T14:16:33;11.20;99.90
7290;DHT22;63176;52.678;13.250;2024-02-21T14:18:59;11.20;99.90
7290;DHT22;63176;52.678;13.250;2024-02-21T14:21:25;11.20;99.90
7290;DHT22;63176;52.678;13.250;2024-02-21T14:23:51;11.20;99.90
7290;DHT22;63176;52.678;13.250;2024-02-21T14:26:18;11.20;99.90
7290;DHT22;63176;52.678;13.250;2024-02-21T14:28:43;11.20;99.90
7290;DHT22;63176;52.678;13.250;2024-02-21T14:31:09;11.20;99.90
7290;DHT22;63176;52.678;13.250;2024-02-21T14:33:35;11.20;99.90
7290;DHT22;63176;52.678;13.250;2024-02-21T14:36:01;11.20;99.90
7290;DHT22;63176;52.678;13.250;2024-02-21T14:38:28;11.20;99.90
7290;DHT22;63176;52.678;13.250;2024-02-21T14:40:54;11.10;99.90
7290;DHT22;63176;52.678;13.250;2024-02-21T14:43:20;11.10;99.90
7290;DHT22;63176;52.678;13.250;2024-02-21T14:45:47;11.10;99.90
7290;DHT22;63176;52.678;13.250;2024-02-21T14:48:13;11.10;99.90
7290;DHT22;63176;52.678;13.250;2024-02-21T14:50:39;11.10;99.90
7290;DHT22;63176;52.678;13.250;2024-02-21T14:53:04;11.10;99.90
7290;DHT22;63176;52.678;13.250;2024-02-21T14:55:30;11.10;99.90
7290;DHT22;63176;52.678;13.250;2024-02-21T14:57:56;11.10;99.90
7290;DHT22;63176;52.678;13.250;2024-02-21T15:00:21;11.00;99.90
7290;DHT22;63176;52.678;13.250;2024-02-21T15:02:55;11.10;99.90
7290;DHT22;63176;52.678;13.250;2024-02-21T15:05:21;11.10;99.90
7290;DHT22;63176;52.678;13.250;2024-02-21T15:07:47;11.00;99.90
7290;DHT22;63176;52.678;13.250;2024-02-21T15:10:12;11.10;99.90
7290;DHT22;63176;52.678;13.250;2024-02-21T15:12:38;11.10;99.90
7290;DHT22;63176;52.678;13.250;2024-02-21T15:15:05;11.10;99.90
7290;DHT22;63176;52.678;13.250;2024-02-21T15:17:31;11.10;99.90
7290;DHT22;63176;52.678;13.250;2024-02-21T15:19:57;11.10;99.90
7290;DHT22;63176;52.678;13.250;2024-02-21T15:22:24;11.10;99.90
7290;DHT22;63176;52.678;13.250;2024-02-21T15:24:50;11.00;99.90
7290;DHT22;63176;52.678;13.250;2024-02-21T15:27:16;11.10;99.90
7290;DHT22;63176;52.678;13.250;2024-02-21T15:29:42;11.00;99.90
7290;DHT22;63176;52.678;13.250;2024-02-21T15:32:08;11.00;99.90
7290;DHT22;63176;52.678;13.250;2024-02-21T15:34:34;11.00;99.90
7290;DHT22;63176;52.678;13.250;2024-02-21T15:36:59;11.00;99.90
7290;DHT22;63176;52.678;13.250;2024-02-21T15:39:25;11.00;99.90
7290;DHT22;63176;52.678;13.250;2024-02-21T15:41:57;11.00;99.90
7290;DHT22;63176;52.678;13.250;2024-02-21T15:44:22;11.00;99.90